sensor_id;sensor_type;location;lat;lon;timestamp;pressure;altitude;pressure_sealevel;temperature;humidity
12101;BME280;6113;42.678;23.334;2022-07-11T00:00:49;94763.84;;;18.98;65.73
12101;BME280;6113;42.678;23.334;2022-07-11T00:03:15;94785.78;;;19.19;65.31
12101;BME280;6113;42.678;23.334;2022-07-11T00:05:44;94776.56;;;19.11;64.89
12101;BME280;6113;42.678;23.334;2022-07-11T00:08:10;94781.56;;;19.13;65.10
12101;BME280;6113;42.678;23.334;2022-07-11T00:10:37;94780.84;;;19.07;64.84
12101;BME280;6113;42.678;23.334;2022-07-11T00:13:04;94784.94;;;18.95;65.50
12101;BME280;6113;42.678;23.334;2022-07-11T00:15:31;94793.97;;;18.96;65.43
12101;BME280;6113;42.678;23.334;2022-07-11T00:17:58;94785.97;;;18.92;65.34
12101;BME280;6113;42.678;23.334;2022-07-11T00:20:24;94789.03;;;18.83;65.64
12101;BME280;6113;42.678;23.334;2022-07-11T00:22:52;94794.25;;;18.92;65.35
12101;BME280;6113;42.678;23.334;2022-07-11T00:25:19;94802.28;;;18.90;65.36
12101;BME280;6113;42.678;23.334;2022-07-11T00:27:46;94772.03;;;18.74;65.38
12101;BME280;6113;42.678;23.334;2022-07-11T00:30:13;94804.91;;;18.72;66.25
12101;BME280;6113;42.678;23.334;2022-07-11T00:32:41;94804.94;;;18.61;66.19
12101;BME280;6113;42.678;23.334;2022-07-11T00:35:08;94788.78;;;18.35;66.71
12101;BME280;6113;42.678;23.334;2022-07-11T00:37:36;94814.03;;;18.45;67.01
12101;BME280;6113;42.678;23.334;2022-07-11T00:40:06;94821.31;;;18.48;67.07
12101;BME280;6113;42.678;23.334;2022-07-11T00:42:33;94816.03;;;18.50;66.95
12101;BME280;6113;42.678;23.334;2022-07-11T00:45:00;94787.09;;;18.21;67.06
12101;BME280;6113;42.678;23.334;2022-07-11T00:47:27;94814.84;;;18.34;67.59
12101;BME280;6113;42.678;23.334;2022-07-11T00:49:55;94816.88;;;18.34;67.77
12101;BME280;6113;42.678;23.334;2022-07-11T00:52:22;94804.59;;;18.35;67.90
12101;BME280;6113;42.678;23.334;2022-07-11T00:54:49;94815.53;;;18.51;67.67
12101;BME280;6113;42.678;23.334;2022-07-11T00:57:19;94814.00;;;18.56;67.68
12101;BME280;6113;42.678;23.334;2022-07-11T00:59:46;94816.75;;;18.56;67.70
12101;BME280;6113;42.678;23.334;2022-07-11T01:02:13;94808.00;;;18.52;67.97
12101;BME280;6113;42.678;23.334;2022-07-11T01:04:40;94816.25;;;18.57;67.56
12101;BME280;6113;42.678;23.334;2022-07-11T01:07:07;94797.50;;;18.45;67.48
12101;BME280;6113;42.678;23.334;2022-07-11T01:09:33;94812.94;;;18.70;67.35
12101;BME280;6113;42.678;23.334;2022-07-11T01:12:00;94809.47;;;18.64;66.96
12101;BME280;6113;42.678;23.334;2022-07-11T01:14:28;94820.34;;;18.86;66.70
12101;BME280;6113;42.678;23.334;2022-07-11T01:16:55;94801.53;;;18.90;66.42
12101;BME280;6113;42.678;23.334;2022-07-11T01:19:22;94802.06;;;18.83;66.61
12101;BME280;6113;42.678;23.334;2022-07-11T01:21:50;94790.53;;;18.84;66.44
12101;BME280;6113;42.678;23.334;2022-07-11T01:24:20;94804.69;;;19.04;65.87
12101;BME280;6113;42.678;23.334;2022-07-11T01:26:48;94784.94;;;18.95;65.52
12101;BME280;6113;42.678;23.334;2022-07-11T01:29:15;94815.09;;;18.88;66.22
12101;BME280;6113;42.678;23.334;2022-07-11T01:31:42;94810.81;;;18.87;66.21
12101;BME280;6113;42.678;23.334;2022-07-11T01:34:10;94807.63;;;18.77;66.48
12101;BME280;6113;42.678;23.334;2022-07-11T01:36:37;94797.50;;;18.45;67.31
12101;BME280;6113;42.678;23.334;2022-07-11T01:39:05;94779.28;;;18.31;67.31
12101;BME280;6113;42.678;23.334;2022-07-11T01:41:33;94808.06;;;18.41;67.53
12101;BME280;6113;42.678;23.334;2022-07-11T01:44:00;94772.56;;;18.21;67.66
12101;BME280;6113;42.678;23.334;2022-07-11T01:46:27;94801.84;;;18.29;67.71
12101;BME280;6113;42.678;23.334;2022-07-11T01:48:54;94813.13;;;18.15;68.38
12101;BME280;6113;42.678;23.334;2022-07-11T01:51:22;94802.91;;;18.10;68.42
12101;BME280;6113;42.678;23.334;2022-07-11T01:53:49;94791.16;;;18.04;68.31
12101;BME280;6113;42.678;23.334;2022-07-11T01:56:16;94804.09;;;18.20;67.99
12101;BME280;6113;42.678;23.334;2022-07-11T01:58:44;94806.09;;;18.30;67.61
12101;BME280;6113;42.678;23.334;2022-07-11T02:01:11;94802.63;;;18.14;67.97
12101;BME280;6113;42.678;23.334;2022-07-11T02:03:38;94818.38;;;18.18;67.93
12101;BME280;6113;42.678;23.334;2022-07-11T02:06:05;94718.16;;;17.54;67.77
12101;BME280;6113;42.678;23.334;2022-07-11T02:08:32;94821.94;;;18.08;68.22
12101;BME280;6113;42.678;23.334;2022-07-11T02:10:59;94806.13;;;18.14;68.06
12101;BME280;6113;42.678;23.334;2022-07-11T02:13:26;94795.16;;;18.03;67.98
12101;BME280;6113;42.678;23.334;2022-07-11T02:15:55;94803.19;;;17.90;68.72
12101;BME280;6113;42.678;23.334;2022-07-11T02:18:22;94832.16;;;18.18;68.14
12101;BME280;6113;42.678;23.334;2022-07-11T02:20:48;94829.16;;;18.27;67.74
12101;BME280;6113;42.678;23.334;2022-07-11T02:23:16;94833.63;;;18.36;67.51
12101;BME280;6113;42.678;23.334;2022-07-11T02:25:44;94821.63;;;18.28;67.06
12101;BME280;6113;42.678;23.334;2022-07-11T02:28:11;94810.59;;;18.28;66.92
12101;BME280;6113;42.678;23.334;2022-07-11T02:30:40;94833.41;;;18.34;66.89
12101;BME280;6113;42.678;23.334;2022-07-11T02:33:08;94835.91;;;18.32;66.81
12101;BME280;6113;42.678;23.334;2022-07-11T02:35:39;94806.63;;;18.18;66.92
12101;BME280;6113;42.678;23.334;2022-07-11T02:38:06;94836.41;;;18.19;67.40
12101;BME280;6113;42.678;23.334;2022-07-11T02:40:33;94830.91;;;18.14;67.57
12101;BME280;6113;42.678;23.334;2022-07-11T02:43:00;94835.19;;;18.10;67.90
12101;BME280;6113;42.678;23.334;2022-07-11T02:45:27;94846.25;;;18.04;67.80
12101;BME280;6113;42.678;23.334;2022-07-11T02:47:54;94845.22;;;18.02;68.09
12101;BME280;6113;42.678;23.334;2022-07-11T02:50:22;94850.00;;;17.90;68.47
12101;BME280;6113;42.678;23.334;2022-07-11T02:52:49;94841.78;;;17.79;69.22
12101;BME280;6113;42.678;23.334;2022-07-11T02:55:15;94837.28;;;17.76;69.47
12101;BME280;6113;42.678;23.334;2022-07-11T02:57:42;94834.50;;;17.82;69.43
12101;BME280;6113;42.678;23.334;2022-07-11T03:00:12;94818.00;;;17.76;68.75
12101;BME280;6113;42.678;23.334;2022-07-11T03:02:39;94834.75;;;17.89;68.23
12101;BME280;6113;42.678;23.334;2022-07-11T03:05:07;94851.25;;;17.95;68.90
12101;BME280;6113;42.678;23.334;2022-07-11T03:07:36;94864.03;;;18.03;68.48
12101;BME280;6113;42.678;23.334;2022-07-11T03:10:03;94856.00;;;18.05;68.42
12101;BME280;6113;42.678;23.334;2022-07-11T03:12:30;94867.75;;;18.16;67.60
12101;BME280;6113;42.678;23.334;2022-07-11T03:14:57;94862.53;;;17.86;68.92
12101;BME280;6113;42.678;23.334;2022-07-11T03:17:24;94861.28;;;17.92;68.57
12101;BME280;6113;42.678;23.334;2022-07-11T03:19:51;94857.50;;;18.06;68.19
12101;BME280;6113;42.678;23.334;2022-07-11T03:22:17;94865.50;;;18.10;67.77
12101;BME280;6113;42.678;23.334;2022-07-11T03:24:46;94874.28;;;18.19;67.32
12101;BME280;6113;42.678;23.334;2022-07-11T03:27:12;94876.53;;;18.31;67.27
12101;BME280;6113;42.678;23.334;2022-07-11T03:29:39;94868.97;;;18.43;67.32
12101;BME280;6113;42.678;23.334;2022-07-11T03:32:07;94868.69;;;18.46;67.26
12101;BME280;6113;42.678;23.334;2022-07-11T03:34:34;94878.44;;;18.53;67.28
12101;BME280;6113;42.678;23.334;2022-07-11T03:37:02;94880.72;;;18.49;65.84
12101;BME280;6113;42.678;23.334;2022-07-11T03:42:16;94855.75;;;18.03;66.73
12101;BME280;6113;42.678;23.334;2022-07-11T03:44:43;94856.72;;;18.22;66.51
12101;BME280;6113;42.678;23.334;2022-07-11T03:47:09;94870.28;;;18.09;66.98
12101;BME280;6113;42.678;23.334;2022-07-11T03:49:36;94882.56;;;18.03;67.57
12101;BME280;6113;42.678;23.334;2022-07-11T03:52:03;94885.31;;;17.97;68.20
12101;BME280;6113;42.678;23.334;2022-07-11T03:54:30;94889.34;;;17.85;68.95
12101;BME280;6113;42.678;23.334;2022-07-11T03:56:57;94887.84;;;17.73;69.37
12101;BME280;6113;42.678;23.334;2022-07-11T03:59:25;94872.06;;;17.57;69.60
12101;BME280;6113;42.678;23.334;2022-07-11T04:01:52;94888.84;;;17.81;69.57
12101;BME280;6113;42.678;23.334;2022-07-11T04:04:19;94896.34;;;17.75;69.92
12101;BME280;6113;42.678;23.334;2022-07-11T04:06:46;94882.84;;;17.66;69.78
12101;BME280;6113;42.678;23.334;2022-07-11T04:09:12;94902.38;;;17.68;70.36
12101;BME280;6113;42.678;23.334;2022-07-11T04:11:39;94904.13;;;17.66;70.98
12101;BME280;6113;42.678;23.334;2022-07-11T04:14:06;94904.13;;;17.66;71.63
12101;BME280;6113;42.678;23.334;2022-07-11T04:16:35;94910.13;;;17.81;71.11
12101;BME280;6113;42.678;23.334;2022-07-11T04:19:02;94904.88;;;17.88;71.20
12101;BME280;6113;42.678;23.334;2022-07-11T04:21:29;94906.09;;;17.98;71.21
12101;BME280;6113;42.678;23.334;2022-07-11T04:23:56;94904.63;;;17.70;72.35
12101;BME280;6113;42.678;23.334;2022-07-11T04:26:23;94913.63;;;17.70;72.42
12101;BME280;6113;42.678;23.334;2022-07-11T04:28:50;94904.88;;;17.55;72.83
12101;BME280;6113;42.678;23.334;2022-07-11T04:31:17;94905.13;;;17.63;72.60
12101;BME280;6113;42.678;23.334;2022-07-11T04:33:45;94905.13;;;17.68;73.07
12101;BME280;6113;42.678;23.334;2022-07-11T04:36:12;94913.63;;;17.81;72.79
12101;BME280;6113;42.678;23.334;2022-07-11T04:38:47;94898.59;;;17.88;72.13
12101;BME280;6113;42.678;23.334;2022-07-11T04:41:15;94918.88;;;17.96;72.16
12101;BME280;6113;42.678;23.334;2022-07-11T04:43:41;94920.88;;;18.06;71.18
12101;BME280;6113;42.678;23.334;2022-07-11T04:46:09;94921.88;;;18.25;71.06
12101;BME280;6113;42.678;23.334;2022-07-11T04:48:36;94895.31;;;18.22;70.04
12101;BME280;6113;42.678;23.334;2022-07-11T04:51:05;94917.03;;;18.47;69.54
12101;BME280;6113;42.678;23.334;2022-07-11T04:53:32;94914.28;;;18.53;69.40
12101;BME280;6113;42.678;23.334;2022-07-11T04:55:59;94916.81;;;18.51;69.15
12101;BME280;6113;42.678;23.334;2022-07-11T04:58:26;94821.41;;;18.10;68.87
12101;BME280;6113;42.678;23.334;2022-07-11T05:00:52;94876.38;;;18.70;68.31
12101;BME280;6113;42.678;23.334;2022-07-11T05:03:19;94919.63;;;18.97;68.17
12101;BME280;6113;42.678;23.334;2022-07-11T05:05:46;94934.38;;;19.10;68.58
12101;BME280;6113;42.678;23.334;2022-07-11T05:08:14;94927.84;;;19.13;67.85
12101;BME280;6113;42.678;23.334;2022-07-11T05:10:41;94927.59;;;19.16;67.71
12101;BME280;6113;42.678;23.334;2022-07-11T05:13:08;94909.88;;;18.90;67.79
12101;BME280;6113;42.678;23.334;2022-07-11T05:15:35;94937.38;;;19.06;68.63
12101;BME280;6113;42.678;23.334;2022-07-11T05:18:01;94923.91;;;18.98;68.71
12101;BME280;6113;42.678;23.334;2022-07-11T05:20:28;94943.22;;;18.98;68.71
12101;BME280;6113;42.678;23.334;2022-07-11T05:22:56;94950.00;;;18.97;69.28
12101;BME280;6113;42.678;23.334;2022-07-11T05:25:24;94949.44;;;19.09;69.71
12101;BME280;6113;42.678;23.334;2022-07-11T05:27:51;94945.09;;;19.24;69.07
12101;BME280;6113;42.678;23.334;2022-07-11T05:30:18;94949.31;;;19.36;67.90
12101;BME280;6113;42.678;23.334;2022-07-11T05:32:45;94945.09;;;19.24;68.44
12101;BME280;6113;42.678;23.334;2022-07-11T05:35:12;94927.94;;;19.42;67.94
12101;BME280;6113;42.678;23.334;2022-07-11T05:37:39;94931.91;;;19.52;66.58
12101;BME280;6113;42.678;23.334;2022-07-11T05:40:06;94925.16;;;19.48;66.59
12101;BME280;6113;42.678;23.334;2022-07-11T05:42:35;94946.16;;;19.62;65.50
12101;BME280;6113;42.678;23.334;2022-07-11T05:45:02;94939.72;;;19.83;64.13
12101;BME280;6113;42.678;23.334;2022-07-11T05:47:29;94938.25;;;19.77;60.35
12101;BME280;6113;42.678;23.334;2022-07-11T05:49:56;94847.22;;;19.25;58.46
12101;BME280;6113;42.678;23.334;2022-07-11T05:52:22;94922.53;;;19.61;56.69
12101;BME280;6113;42.678;23.334;2022-07-11T05:54:49;94917.69;;;19.72;56.05
12101;BME280;6113;42.678;23.334;2022-07-11T05:57:16;94935.88;;;19.91;55.24
12101;BME280;6113;42.678;23.334;2022-07-11T05:59:44;94932.56;;;19.98;53.24
12101;BME280;6113;42.678;23.334;2022-07-11T06:02:12;94930.88;;;19.90;52.09
12101;BME280;6113;42.678;23.334;2022-07-11T06:04:39;94929.59;;;19.91;51.99
12101;BME280;6113;42.678;23.334;2022-07-11T06:07:08;94829.69;;;19.23;52.18
12101;BME280;6113;42.678;23.334;2022-07-11T06:09:34;94925.63;;;19.86;52.17
12101;BME280;6113;42.678;23.334;2022-07-11T06:12:00;94896.28;;;19.78;49.87
12101;BME280;6113;42.678;23.334;2022-07-11T06:14:27;94911.50;;;19.90;49.00
12101;BME280;6113;42.678;23.334;2022-07-11T06:16:56;94908.09;;;20.08;49.18
12101;BME280;6113;42.678;23.334;2022-07-11T06:19:22;94922.19;;;20.34;49.14
12101;BME280;6113;42.678;23.334;2022-07-11T06:21:49;94932.59;;;20.22;48.49
12101;BME280;6113;42.678;23.334;2022-07-11T06:24:18;94916.41;;;20.08;48.81
12101;BME280;6113;42.678;23.334;2022-07-11T06:26:44;94938.91;;;20.23;48.79
12101;BME280;6113;42.678;23.334;2022-07-11T06:29:11;94933.13;;;20.21;48.90
12101;BME280;6113;42.678;23.334;2022-07-11T06:31:38;94925.03;;;19.99;48.40
12101;BME280;6113;42.678;23.334;2022-07-11T06:34:06;94936.34;;;20.25;48.57
12101;BME280;6113;42.678;23.334;2022-07-11T06:36:33;94937.34;;;20.27;48.33
12101;BME280;6113;42.678;23.334;2022-07-11T06:39:00;94934.94;;;20.42;48.66
12101;BME280;6113;42.678;23.334;2022-07-11T06:41:27;94933.16;;;20.45;48.17
12101;BME280;6113;42.678;23.334;2022-07-11T06:43:53;94928.53;;;20.53;48.48
12101;BME280;6113;42.678;23.334;2022-07-11T06:46:20;94936.09;;;20.76;47.84
12101;BME280;6113;42.678;23.334;2022-07-11T06:48:47;94931.41;;;20.89;47.98
12101;BME280;6113;42.678;23.334;2022-07-11T06:51:15;94940.81;;;21.05;47.71
12101;BME280;6113;42.678;23.334;2022-07-11T06:53:42;94921.31;;;21.10;46.94
12101;BME280;6113;42.678;23.334;2022-07-11T06:56:09;94935.16;;;21.10;44.56
12101;BME280;6113;42.678;23.334;2022-07-11T06:58:35;94929.06;;;21.36;44.99
12101;BME280;6113;42.678;23.334;2022-07-11T07:01:04;94921.19;;;21.58;44.39
12101;BME280;6113;42.678;23.334;2022-07-11T07:03:32;94925.66;;;21.79;43.24
12101;BME280;6113;42.678;23.334;2022-07-11T07:06:00;94928.63;;;22.00;42.72
12101;BME280;6113;42.678;23.334;2022-07-11T07:08:29;94889.16;;;21.94;42.59
12101;BME280;6113;42.678;23.334;2022-07-11T07:10:56;94906.19;;;22.29;43.15
12101;BME280;6113;42.678;23.334;2022-07-11T07:13:23;94927.91;;;22.69;43.02
12101;BME280;6113;42.678;23.334;2022-07-11T07:15:52;94918.28;;;22.83;42.22
12101;BME280;6113;42.678;23.334;2022-07-11T07:18:19;94930.16;;;22.97;42.10
12101;BME280;6113;42.678;23.334;2022-07-11T07:20:46;94927.94;;;23.21;41.83
12101;BME280;6113;42.678;23.334;2022-07-11T07:23:14;94931.13;;;22.86;41.91
12101;BME280;6113;42.678;23.334;2022-07-11T07:25:42;94922.03;;;22.99;42.15
12101;BME280;6113;42.678;23.334;2022-07-11T07:28:09;94924.50;;;22.89;42.14
12101;BME280;6113;42.678;23.334;2022-07-11T07:30:36;94932.72;;;22.95;42.16
12101;BME280;6113;42.678;23.334;2022-07-11T07:33:03;94921.19;;;22.91;42.21
12101;BME280;6113;42.678;23.334;2022-07-11T07:35:29;94933.16;;;22.99;41.73
12101;BME280;6113;42.678;23.334;2022-07-11T07:37:56;94935.16;;;22.98;42.15
12101;BME280;6113;42.678;23.334;2022-07-11T07:40:23;94923.97;;;23.16;41.68
12101;BME280;6113;42.678;23.334;2022-07-11T07:42:51;94923.06;;;23.34;39.99
12101;BME280;6113;42.678;23.334;2022-07-11T07:45:18;94930.00;;;23.41;40.97
12101;BME280;6113;42.678;23.334;2022-07-11T07:47:45;94928.28;;;23.51;40.69
12101;BME280;6113;42.678;23.334;2022-07-11T07:50:12;94918.28;;;23.35;40.20
12101;BME280;6113;42.678;23.334;2022-07-11T07:52:38;94904.28;;;23.27;40.59
12101;BME280;6113;42.678;23.334;2022-07-11T07:55:06;94933.53;;;23.41;40.46
12101;BME280;6113;42.678;23.334;2022-07-11T07:57:33;94926.34;;;23.46;41.03
12101;BME280;6113;42.678;23.334;2022-07-11T08:00:02;94908.09;;;23.71;40.70
12101;BME280;6113;42.678;23.334;2022-07-11T08:02:46;94932.13;;;24.14;39.91
12101;BME280;6113;42.678;23.334;2022-07-11T08:05:14;94932.84;;;24.35;39.38
12101;BME280;6113;42.678;23.334;2022-07-11T08:07:40;94925.88;;;24.42;39.81
12101;BME280;6113;42.678;23.334;2022-07-11T08:10:08;94925.06;;;24.34;38.97
12101;BME280;6113;42.678;23.334;2022-07-11T08:12:35;94937.97;;;24.44;38.88
12101;BME280;6113;42.678;23.334;2022-07-11T08:15:04;94925.19;;;24.49;39.05
12101;BME280;6113;42.678;23.334;2022-07-11T08:17:31;94866.16;;;24.22;38.42
12101;BME280;6113;42.678;23.334;2022-07-11T08:19:58;94926.69;;;24.09;38.89
12101;BME280;6113;42.678;23.334;2022-07-11T08:22:25;94903.50;;;24.06;38.55
12101;BME280;6113;42.678;23.334;2022-07-11T08:24:51;94929.25;;;24.07;38.84
12101;BME280;6113;42.678;23.334;2022-07-11T08:27:18;94931.25;;;23.53;38.31
12101;BME280;6113;42.678;23.334;2022-07-11T08:29:46;94926.22;;;23.51;39.58
12101;BME280;6113;42.678;23.334;2022-07-11T08:32:14;94922.47;;;23.62;39.38
12101;BME280;6113;42.678;23.334;2022-07-11T08:34:41;94915.56;;;23.88;38.32
12101;BME280;6113;42.678;23.334;2022-07-11T08:37:08;94908.56;;;23.75;37.76
12101;BME280;6113;42.678;23.334;2022-07-11T08:39:35;94921.63;;;23.54;38.60
12101;BME280;6113;42.678;23.334;2022-07-11T08:42:02;94915.81;;;23.65;38.66
12101;BME280;6113;42.678;23.334;2022-07-11T08:44:29;94914.56;;;23.53;37.82
12101;BME280;6113;42.678;23.334;2022-07-11T08:46:57;94926.53;;;23.61;37.75
12101;BME280;6113;42.678;23.334;2022-07-11T08:49:27;94934.19;;;23.34;38.11
12101;BME280;6113;42.678;23.334;2022-07-11T08:51:55;94919.03;;;23.22;38.17
12101;BME280;6113;42.678;23.334;2022-07-11T08:54:22;94930.66;;;23.34;38.35
12101;BME280;6113;42.678;23.334;2022-07-11T08:56:49;94914.22;;;23.23;37.53
12101;BME280;6113;42.678;23.334;2022-07-11T08:59:18;94930.88;;;23.23;36.95
12101;BME280;6113;42.678;23.334;2022-07-11T09:01:45;94927.00;;;23.52;36.31
12101;BME280;6113;42.678;23.334;2022-07-11T09:04:13;94919.22;;;23.37;36.33
12101;BME280;6113;42.678;23.334;2022-07-11T09:06:43;94942.00;;;23.36;35.85
12101;BME280;6113;42.678;23.334;2022-07-11T09:09:10;94937.91;;;23.50;36.48
12101;BME280;6113;42.678;23.334;2022-07-11T09:11:52;94939.41;;;23.84;35.76
12101;BME280;6113;42.678;23.334;2022-07-11T09:14:23;94947.50;;;24.15;36.00
12101;BME280;6113;42.678;23.334;2022-07-11T09:16:54;94930.06;;;24.35;35.66
12101;BME280;6113;42.678;23.334;2022-07-11T09:19:22;94946.59;;;24.81;34.88
12101;BME280;6113;42.678;23.334;2022-07-11T09:21:59;94946.34;;;24.72;33.76
12101;BME280;6113;42.678;23.334;2022-07-11T09:24:57;94948.97;;;24.77;34.38
12101;BME280;6113;42.678;23.334;2022-07-11T09:27:43;94947.59;;;24.64;33.89
12101;BME280;6113;42.678;23.334;2022-07-11T09:30:22;94931.97;;;24.61;33.45
12101;BME280;6113;42.678;23.334;2022-07-11T09:32:58;94927.16;;;24.89;34.27
12101;BME280;6113;42.678;23.334;2022-07-11T09:35:27;94957.50;;;25.28;32.39
12101;BME280;6113;42.678;23.334;2022-07-11T09:37:56;94945.50;;;25.48;32.54
12101;BME280;6113;42.678;23.334;2022-07-11T09:40:23;94936.59;;;25.49;32.74
12101;BME280;6113;42.678;23.334;2022-07-11T09:42:52;94936.69;;;25.29;33.00
12101;BME280;6113;42.678;23.334;2022-07-11T09:45:21;94947.63;;;25.27;33.05
12101;BME280;6113;42.678;23.334;2022-07-11T09:47:50;94953.50;;;24.88;33.44
12101;BME280;6113;42.678;23.334;2022-07-11T09:50:18;94951.63;;;24.83;33.83
12101;BME280;6113;42.678;23.334;2022-07-11T09:53:01;94950.53;;;25.14;33.89
12101;BME280;6113;42.678;23.334;2022-07-11T09:55:28;94927.97;;;25.32;32.86
12101;BME280;6113;42.678;23.334;2022-07-11T09:57:55;94948.53;;;25.64;31.49
12101;BME280;6113;42.678;23.334;2022-07-11T10:00:22;94949.66;;;25.69;31.75
12101;BME280;6113;42.678;23.334;2022-07-11T10:02:51;94950.47;;;25.77;32.03
12101;BME280;6113;42.678;23.334;2022-07-11T10:05:18;94926.47;;;25.81;31.13
12101;BME280;6113;42.678;23.334;2022-07-11T10:07:45;94937.28;;;25.85;31.63
12101;BME280;6113;42.678;23.334;2022-07-11T10:10:13;94936.34;;;25.82;33.26
12101;BME280;6113;42.678;23.334;2022-07-11T10:12:40;94948.81;;;25.39;33.35
12101;BME280;6113;42.678;23.334;2022-07-11T10:15:09;94865.84;;;24.54;34.29
12101;BME280;6113;42.678;23.334;2022-07-11T10:17:44;94932.22;;;24.70;34.95
12101;BME280;6113;42.678;23.334;2022-07-11T10:20:27;94940.97;;;25.30;34.70
12101;BME280;6113;42.678;23.334;2022-07-11T10:23:02;94952.81;;;25.65;33.11
12101;BME280;6113;42.678;23.334;2022-07-11T10:25:39;94954.59;;;25.83;32.96
12101;BME280;6113;42.678;23.334;2022-07-11T10:28:26;94949.19;;;25.43;33.09
12101;BME280;6113;42.678;23.334;2022-07-11T10:30:57;94947.78;;;25.64;33.62
12101;BME280;6113;42.678;23.334;2022-07-11T10:33:25;94938.81;;;25.93;33.73
12101;BME280;6113;42.678;23.334;2022-07-11T10:35:52;94956.72;;;26.20;32.54
12101;BME280;6113;42.678;23.334;2022-07-11T10:38:20;94955.22;;;26.12;31.46
12101;BME280;6113;42.678;23.334;2022-07-11T10:40:50;94961.97;;;25.73;32.35
12101;BME280;6113;42.678;23.334;2022-07-11T10:43:35;94950.78;;;25.73;33.05
12101;BME280;6113;42.678;23.334;2022-07-11T10:46:05;94959.59;;;25.77;33.08
12101;BME280;6113;42.678;23.334;2022-07-11T10:48:33;94970.47;;;25.60;34.45
12101;BME280;6113;42.678;23.334;2022-07-11T10:51:08;94946.34;;;25.28;33.45
12101;BME280;6113;42.678;23.334;2022-07-11T10:53:39;94964.13;;;25.60;34.02
12101;BME280;6113;42.678;23.334;2022-07-11T10:59:09;94946.16;;;25.68;32.75
12101;BME280;6113;42.678;23.334;2022-07-11T11:04:46;94938.75;;;25.36;34.20
12101;BME280;6113;42.678;23.334;2022-07-11T11:07:31;94987.88;;;25.46;33.63
12101;BME280;6113;42.678;23.334;2022-07-11T11:10:00;94971.03;;;25.24;33.32
12101;BME280;6113;42.678;23.334;2022-07-11T11:15:33;94957.59;;;26.00;33.53
12101;BME280;6113;42.678;23.334;2022-07-11T11:18:31;94965.41;;;25.94;32.75
12101;BME280;6113;42.678;23.334;2022-07-11T11:21:13;94965.78;;;25.91;32.99
12101;BME280;6113;42.678;23.334;2022-07-11T11:23:42;94969.91;;;26.12;32.52
12101;BME280;6113;42.678;23.334;2022-07-11T11:26:11;94958.38;;;26.08;32.74
12101;BME280;6113;42.678;23.334;2022-07-11T11:28:54;94960.81;;;26.27;31.75
12101;BME280;6113;42.678;23.334;2022-07-11T11:31:23;94958.25;;;26.51;32.39
12101;BME280;6113;42.678;23.334;2022-07-11T11:33:50;94960.50;;;26.60;32.20
12101;BME280;6113;42.678;23.334;2022-07-11T11:36:19;94968.13;;;26.67;31.76
12101;BME280;6113;42.678;23.334;2022-07-11T11:38:46;94963.47;;;26.62;31.18
12101;BME280;6113;42.678;23.334;2022-07-11T11:41:14;94971.50;;;26.65;31.81
12101;BME280;6113;42.678;23.334;2022-07-11T11:43:43;94952.81;;;26.30;30.80
12101;BME280;6113;42.678;23.334;2022-07-11T11:46:12;94953.59;;;26.38;31.67
12101;BME280;6113;42.678;23.334;2022-07-11T11:48:40;94962.13;;;26.18;31.46
12101;BME280;6113;42.678;23.334;2022-07-11T11:51:12;94964.31;;;26.12;32.53
12101;BME280;6113;42.678;23.334;2022-07-11T11:53:41;94962.47;;;26.07;31.64
12101;BME280;6113;42.678;23.334;2022-07-11T11:56:14;94965.31;;;26.29;31.75
12101;BME280;6113;42.678;23.334;2022-07-11T11:58:41;94965.72;;;26.41;32.10
12101;BME280;6113;42.678;23.334;2022-07-11T12:01:09;94959.72;;;26.37;32.25
12101;BME280;6113;42.678;23.334;2022-07-11T12:03:51;94969.94;;;26.20;31.44
12101;BME280;6113;42.678;23.334;2022-07-11T12:06:23;94974.91;;;25.56;33.31
12101;BME280;6113;42.678;23.334;2022-07-11T12:08:50;94968.91;;;25.45;33.98
12101;BME280;6113;42.678;23.334;2022-07-11T12:11:17;94974.78;;;25.69;32.88
12101;BME280;6113;42.678;23.334;2022-07-11T12:13:44;94954.56;;;25.41;32.18
12101;BME280;6113;42.678;23.334;2022-07-11T12:16:12;94970.56;;;25.40;32.31
12101;BME280;6113;42.678;23.334;2022-07-11T12:18:59;94959.28;;;25.53;32.67
12101;BME280;6113;42.678;23.334;2022-07-11T12:21:27;94962.75;;;25.81;32.87
12101;BME280;6113;42.678;23.334;2022-07-11T12:23:55;94944.16;;;25.84;32.83
12101;BME280;6113;42.678;23.334;2022-07-11T12:26:22;94957.22;;;25.89;32.72
12101;BME280;6113;42.678;23.334;2022-07-11T12:29:03;94944.81;;;25.62;33.47
12101;BME280;6113;42.678;23.334;2022-07-11T12:31:40;94957.03;;;25.94;32.59
12101;BME280;6113;42.678;23.334;2022-07-11T12:34:09;94954.81;;;26.00;32.61
12101;BME280;6113;42.678;23.334;2022-07-11T12:36:36;94963.03;;;26.06;32.38
12101;BME280;6113;42.678;23.334;2022-07-11T12:39:03;94960.91;;;25.84;32.12
12101;BME280;6113;42.678;23.334;2022-07-11T12:41:31;94953.41;;;25.29;33.07
12101;BME280;6113;42.678;23.334;2022-07-11T12:43:58;94948.75;;;25.24;33.62
12101;BME280;6113;42.678;23.334;2022-07-11T12:46:42;94958.78;;;24.99;33.90
12101;BME280;6113;42.678;23.334;2022-07-11T12:49:14;94957.28;;;24.70;33.47
12101;BME280;6113;42.678;23.334;2022-07-11T12:51:44;94963.06;;;24.72;34.42
12101;BME280;6113;42.678;23.334;2022-07-11T12:54:13;94960.25;;;24.72;35.26
12101;BME280;6113;42.678;23.334;2022-07-11T12:56:41;94952.06;;;24.94;34.43
12101;BME280;6113;42.678;23.334;2022-07-11T12:59:19;94937.56;;;24.88;33.92
12101;BME280;6113;42.678;23.334;2022-07-11T13:01:57;94952.50;;;25.06;34.01
12101;BME280;6113;42.678;23.334;2022-07-11T13:04:35;94955.00;;;25.17;32.35
12101;BME280;6113;42.678;23.334;2022-07-11T13:07:27;94958.78;;;25.27;33.14
12101;BME280;6113;42.678;23.334;2022-07-11T13:10:13;94958.25;;;25.28;33.90
12101;BME280;6113;42.678;23.334;2022-07-11T13:12:40;94946.97;;;25.41;33.92
12101;BME280;6113;42.678;23.334;2022-07-11T13:15:09;94948.22;;;25.33;33.09
12101;BME280;6113;42.678;23.334;2022-07-11T13:17:37;94920.88;;;25.24;33.10
12101;BME280;6113;42.678;23.334;2022-07-11T13:20:08;94960.56;;;25.45;32.43